Latest Weather Observations for Rottnest Island

IDW60801

Issued at 9:13 am WST Tuesday 14 July 2020 (issued every 10 minutes, with the page automatically refreshed every 10 minutes)

About weather observations | Map of weather stations | Latest weather observations for WA | Other Formats
Station Details ID: 009193 Name: ROTTNEST ISLAND Lat: -32.01 Lon: 115.50 Height: 43.1 m
Data from the previous 72 hours. | See also: Recent months at Rottnest Island
Date/Time
WST
Temp
°C
App
Temp
°C
Dew
Point
°C
Rel
Hum
%
Delta-T
°C
Wind Press
QNH
hPa
Press
MSL
hPa
Rain since
9am
mm
Dir  Spd
km/h
Gust
km/h
Spd
kts
Gust
kts
14/09:00am 11.2 2.5 7.9 80 1.6 W 43 72 23 39 1014.3 1014.2 4.4
14/08:30am 13.9 6.4 9.5 75 2.3 WSW 39 57 21 31 1013.2 1013.1 4.2
14/08:29am 14.0 6.4 9.0 72 2.5 WSW 39 57 21 31 1013.3 1013.2 4.2
14/08:00am 12.6 6.1 8.1 74 2.2 WSW 32 44 17 24 1012.7 1012.6 4.2
14/07:39am 13.7 7.6 8.3 70 2.7 W 30 56 16 30 1012.4 1012.3 3.6
14/07:30am 13.2 6.4 7.9 70 2.6 WSW 33 44 18 24 1012.2 1012.1 3.6
14/07:00am 12.8 2.6 8.7 76 2.1 WSW 52 72 28 39 1012.1 1012.0 3.6
14/06:30am 14.5 5.7 8.2 66 3.2 W 44 65 24 35 1011.0 1010.9 3.6
14/06:00am 14.4 5.3 9.8 74 2.4 WSW 48 67 26 36 1010.4 1010.3 3.6
14/05:30am 14.8 4.1 6.4 57 4.1 W 52 70 28 38 1009.6 1009.5 3.6
14/05:00am 15.0 6.2 9.4 69 2.9 W 46 65 25 35 1009.1 1009.0 3.6
14/04:30am 15.0 7.0 10.4 74 2.4 W 43 65 23 35 1008.5 1008.4 3.6
14/04:00am 14.2 6.3 12.6 90 0.9 W 46 65 25 35 1008.3 1008.2 3.6
14/03:30am 12.5 3.7 12.3 99 0.1 WNW 50 70 27 38 1008.6 1008.5 2.8
14/03:23am 13.6 5.5 13.1 97 0.3 WNW 48 69 26 37 1008.6 1008.5 2.6
14/03:00am 14.1 6.4 13.3 95 0.4 NW 46 61 25 33 1008.3 1008.2 2.4
14/02:30am 13.8 6.6 13.8 100 0.0 WNW 44 59 24 32 1008.4 1008.3 1.8
14/02:01am 14.0 7.8 13.8 99 0.1 W 39 57 21 31 1008.0 1007.9 1.4
14/02:00am 13.9 7.3 13.7 99 0.1 W 41 57 22 31 1007.8 1007.8 1.4
14/01:42am 14.8 7.9 14.5 98 0.2 WSW 44 69 24 37 1008.0 1007.9 1.2
14/01:30am 15.4 8.3 13.9 91 0.8 W 44 61 24 33 1007.3 1007.3 1.2
14/01:18am 16.6 6.9 13.1 80 2.0 WNW 56 83 30 45 1007.0 1007.0 1.2
14/01:17am 16.8 6.4 12.7 77 2.3 NW 59 83 32 45 1007.0 1007.0 1.2
14/01:00am 18.8 7.1 13.4 71 3.1 NW 67 89 36 48 1006.3 1006.3 1.2
14/12:30am 18.9 7.6 14.4 75 2.6 NW 67 89 36 48 1006.3 1006.3 1.2
14/12:00am 18.8 8.9 14.1 74 2.7 NNW 59 78 32 42 1006.0 1006.0 1.2
 
Date/Time
WST
Temp
°C
App
Temp
°C
Dew
Point
°C
Rel
Hum
%
Delta-T
°C
Wind Press
QNH
hPa
Press
MSL
hPa
Rain since
9am
mm
Dir  Spd
km/h
Gust
km/h
Spd
kts
Gust
kts
13/11:30pm 18.8 9.9 15.3 80 2.1 NNW 56 74 30 40 1006.3 1006.3 1.2
13/11:00pm 18.6 9.6 15.1 80 2.1 NNW 56 78 30 42 1006.9 1006.9 1.2
13/10:41pm 18.5 11.9 16.3 87 1.3 NNW 46 67 25 36 1007.3 1007.3 1.2
13/10:30pm 18.2 11.7 16.7 91 0.9 NNW 46 61 25 33 1007.4 1007.4 1.2
13/10:11pm 18.3 10.6 16.5 89 1.1 NNW 52 70 28 38 1008.1 1008.0 1.2
13/10:00pm 18.3 10.2 16.5 89 1.1 NW 54 65 29 35 1008.5 1008.4 1.2
13/09:30pm 16.1 7.0 15.3 95 0.5 NNW 57 78 31 42 1008.7 1008.6 1.2
13/09:20pm 18.5 11.1 17.3 93 0.7 NNW 52 70 28 38 1008.4 1008.3 1.2
13/09:00pm 18.1 12.1 17.9 99 0.1 NNW 46 61 25 33 1008.6 1008.5 1.2
13/08:42pm 18.1 11.2 17.6 97 0.3 NNW 50 72 27 39 1008.7 1008.6 1.2
13/08:30pm 17.9 11.1 17.7 99 0.1 NNW 50 67 27 36 1009.1 1009.0 1.2
13/08:26pm 18.0 10.8 17.7 98 0.2 NNW 52 67 28 36 1008.8 1008.7 1.2
13/08:00pm 18.0 13.3 17.8 99 0.1 NNW 39 52 21 28 1009.2 1009.1 0.8
13/07:30pm 17.3 12.8 17.3 100 0.0 NNW 37 46 20 25 1009.6 1009.5 0.8
13/07:00pm 17.3 12.8 17.3 100 0.0 NNW 37 46 20 25 1009.7 1009.6 0.8
13/06:30pm 16.6 13.5 16.6 100 0.0 NW 28 37 15 20 1010.0 1009.9 0.8
13/06:00pm 16.5 12.6 16.5 100 0.0 NNW 32 41 17 22 1010.3 1010.2 0.6
13/05:30pm 18.3 13.9 15.2 82 1.8 NNW 32 39 17 21 1010.5 1010.4 0.4
13/05:00pm 18.3 12.9 14.0 76 2.5 NNW 35 44 19 24 1010.5 1010.4 0.4
13/04:30pm 17.9 14.2 15.0 83 1.7 NNW 28 33 15 18 1010.8 1010.7 0.4
13/04:00pm 17.8 12.8 14.1 79 2.1 NW 33 46 18 25 1011.1 1011.0 0.4
13/03:30pm 18.4 12.7 13.1 71 3.0 NW 35 48 19 26 1011.1 1011.0 0.4
13/03:00pm 19.0 13.9 13.8 72 3.0 NNW 33 43 18 23 1011.2 1011.1 0.4
13/02:30pm 18.9 13.6 14.2 74 2.7 NNW 35 48 19 26 1011.3 1011.2 0.4
13/02:00pm 19.0 14.3 15.9 82 1.8 NW 35 43 19 23 1011.4 1011.3 0.4
13/01:30pm 16.6 12.8 16.6 100 0.0 NW 32 41 17 22 1011.7 1011.6 0.4
13/01:04pm 18.3 12.1 14.8 80 2.0 NNW 41 61 22 33 1012.0 1011.9 0.4
13/01:00pm 18.8 13.6 14.5 76 2.5 NNW 35 46 19 25 1012.0 1011.9 0.4
13/12:30pm 18.4 13.9 16.4 88 1.2 NNW 35 46 19 25 1012.8 1012.7 0.4
13/12:15pm 16.6 11.7 16.4 99 0.1 NW 37 46 20 25 1013.2 1013.1 0.4
13/12:00pm 16.2 9.9 15.6 96 0.4 WNW 43 59 23 32 1013.8 1013.7 0.4
13/11:55am 17.1 11.2 14.6 85 1.4 NW 39 59 21 32 1013.7 1013.6 0.4
13/11:53am 18.2 12.9 14.3 78 2.2 NNW 35 57 19 31 1013.3 1013.2 0.4
13/11:30am 18.4 13.7 14.9 80 2.0 NW 33 41 18 22 1013.6 1013.5 0.4
13/11:00am 18.2 14.6 16.2 88 1.2 NW 30 39 16 21 1014.0 1013.9 0.4
13/10:30am 17.7 13.5 16.2 91 0.9 NW 33 44 18 24 1014.0 1013.9 0.4
13/10:00am 15.8 10.4 15.0 95 0.5 NW 37 56 20 30 1014.5 1014.4 0.4
13/09:58am 17.0 12.2 15.5 91 0.9 NW 35 56 19 30 1014.4 1014.3 0.4
13/09:30am 16.7 13.7 16.7 100 0.0 NW 28 39 15 21 1014.3 1014.2 0.4
13/09:01am 16.4 13.2 16.2 99 0.1 NW 28 46 15 25 1014.5 1014.4 0.0
13/09:00am 16.5 13.3 16.2 98 0.2 WNW 28 39 15 21 1014.3 1014.2 1.8
13/08:30am 16.3 13.1 16.3 100 0.0 WNW 28 39 15 21 1014.3 1014.2 1.8
13/08:00am 16.7 13.3 15.7 94 0.6 NW 28 35 15 19 1014.1 1014.0 1.6
13/07:30am 16.9 13.5 15.9 94 0.6 NNW 28 39 15 21 1013.8 1013.7 1.6
13/07:00am 16.7 13.2 15.4 92 0.8 NW 28 35 15 19 1013.7 1013.6 1.6
13/06:30am 16.2 14.1 16.2 100 0.0 NW 22 28 12 15 1013.5 1013.4 1.6
13/06:00am 16.8 13.9 16.0 95 0.5 NW 26 35 14 19 1013.5 1013.4 1.6
13/05:30am 16.5 12.6 15.5 94 0.6 NW 30 37 16 20 1013.5 1013.4 1.6
13/05:00am 17.4 13.5 14.5 83 1.7 NW 28 35 15 19 1013.4 1013.3 1.0
13/04:30am 17.3 13.0 14.4 83 1.7 NW 30 39 16 21 1013.4 1013.3 1.0
13/04:00am 17.2 13.4 14.7 85 1.4 NW 28 39 15 21 1013.6 1013.5 1.0
13/03:30am 17.2 12.9 15.4 89 1.1 NW 32 41 17 22 1014.0 1013.9 1.0
13/03:00am 17.1 13.6 15.4 90 1.0 NW 28 35 15 19 1014.0 1013.9 1.0
13/02:30am 16.9 14.5 16.4 97 0.3 NW 24 30 13 16 1014.1 1014.0 1.0
13/02:00am 16.5 13.5 15.9 96 0.4 NW 26 32 14 17 1014.2 1014.1 1.0
13/01:30am 16.2 13.6 16.0 99 0.1 NW 24 32 13 17 1014.4 1014.3 0.8
13/01:00am 15.5 12.0 15.5 100 0.0 NW 28 35 15 19 1014.3 1014.2 0.8
13/12:30am 14.7 10.4 14.5 99 0.1 WNW 30 39 16 21 1014.9 1014.8 0.8
13/12:00am 16.4 11.5 15.4 94 0.6 WNW 35 44 19 24 1015.0 1014.9 0.4
 
Date/Time
WST
Temp
°C
App
Temp
°C
Dew
Point
°C
Rel
Hum
%
Delta-T
°C
Wind Press
QNH
hPa
Press
MSL
hPa
Rain since
9am
mm
Dir  Spd
km/h
Gust
km/h
Spd
kts
Gust
kts
12/11:30pm 16.7 12.2 14.9 89 1.0 WNW 32 41 17 22 1014.5 1014.4 0.4
12/11:00pm 16.9 13.2 16.9 100 0.0 WNW 32 41 17 22 1014.5 1014.4 0.2
12/10:30pm 16.6 11.7 16.4 99 0.1 W 37 48 20 26 1014.9 1014.8 0.2
12/10:00pm 16.4 11.1 16.2 99 0.1 W 39 56 21 30 1014.8 1014.7 0.2
12/09:53pm 16.6 10.4 16.3 98 0.2 WNW 44 69 24 37 1014.6 1014.5 0.2
12/09:46pm 18.2 9.5 14.7 80 2.0 NW 54 70 29 38 1014.4 1014.3 0.0
12/09:30pm 20.8 11.8 15.1 70 3.4 NNW 56 72 30 39 1013.3 1013.2 0.0
12/09:16pm 20.8 12.7 14.5 67 3.7 NNW 50 69 27 37 1013.2 1013.1 0.0
12/09:10pm 20.6 14.8 14.9 70 3.4 N 39 57 21 31 1013.5 1013.4 0.0
12/09:00pm 19.5 13.7 15.0 75 2.6 N 39 50 21 27 1013.5 1013.4 0.0
12/08:30pm 19.5 12.9 13.7 69 3.3 N 41 50 22 27 1012.9 1012.8 0.0
12/08:00pm 19.6 12.7 14.0 70 3.2 N 43 52 23 28 1013.4 1013.3 0.0
12/07:30pm 19.5 13.0 13.9 70 3.2 N 41 52 22 28 1013.9 1013.8 0.0
12/07:00pm 19.2 11.9 12.9 67 3.6 N 43 54 23 29 1013.5 1013.4 0.0
12/06:30pm 19.0 13.0 13.4 70 3.2 N 37 46 20 25 1013.6 1013.5 0.0
12/06:00pm 19.0 12.6 13.2 69 3.3 N 39 50 21 27 1013.6 1013.5 0.0
12/05:30pm 19.0 12.1 12.7 67 3.5 N 41 54 22 29 1013.4 1013.3 0.0
12/05:00pm 19.2 11.9 12.9 67 3.6 N 43 50 23 27 1014.0 1013.9 0.0
12/04:30pm 19.7 12.6 12.2 62 4.2 N 41 52 22 28 1014.5 1014.4 0.0
12/04:00pm 20.0 12.8 10.4 54 5.2 N 39 50 21 27 1014.9 1014.8 0.0
12/03:30pm 20.2 12.3 9.2 49 5.8 N 41 50 22 27 1015.0 1014.9 0.0
12/03:00pm 20.5 12.7 8.2 45 6.4 N 39 50 21 27 1015.5 1015.4 0.0
12/02:30pm 19.9 12.1 6.6 42 6.7 N 37 46 20 25 1015.5 1015.4 0.0
12/02:00pm 19.6 12.3 7.0 44 6.4 N 35 44 19 24 1015.9 1015.8 0.0
12/01:30pm 19.1 10.6 5.2 40 6.8 N 39 46 21 25 1016.1 1016.0 0.0
12/01:00pm 18.8 11.4 6.6 45 6.1 N 35 44 19 24 1016.8 1016.8 0.0
12/12:30pm 18.6 11.5 6.4 45 6.1 N 33 44 18 24 1017.2 1017.2 0.0
12/12:00pm 17.9 10.4 6.1 46 5.8 N 35 44 19 24 1017.9 1017.9 0.0
12/11:30am 17.3 8.8 5.3 45 5.8 N 39 48 21 26 1018.6 1018.6 0.0
12/11:00am 17.5 9.3 6.4 48 5.5 N 39 52 21 28 1018.8 1018.8 0.0
12/10:30am 17.0 8.7 5.9 48 5.4 N 39 50 21 27 1019.2 1019.2 0.0
12/10:00am 16.1 7.2 5.1 48 5.2 NNE 41 54 22 29 1019.2 1019.2 0.0
12/09:30am 15.5 6.2 4.8 49 5.0 NNE 43 56 23 30 1019.4 1019.4 0.0
12/09:00am 14.9 4.9 4.3 49 4.9 NNE 46 61 25 33 1019.2 1019.2 0.0
12/08:30am 14.6 3.4 4.0 49 4.9 NNE 52 67 28 36 1019.0 1019.0 0.0
12/08:00am 14.3 4.4 4.9 53 4.4 NNE 46 57 25 31 1019.6 1019.6 0.0
12/07:30am 14.0 4.3 4.0 51 4.6 NNE 44 54 24 29 1019.8 1019.8 0.0
12/07:00am 13.9 4.8 4.2 52 4.4 NNE 41 54 22 29 1019.9 1019.9 0.0
12/06:30am 13.8 6.0 4.7 54 4.2 NNE 35 50 19 27 1020.1 1020.1 0.0
12/06:00am 13.6 5.3 4.2 53 4.3 NNE 37 48 20 26 1020.0 1020.0 0.0
12/05:30am 13.6 6.1 4.5 54 4.2 NNE 33 44 18 24 1020.4 1020.4 0.0
12/05:00am 13.7 5.8 4.6 54 4.2 NNE 35 44 19 24 1020.6 1020.6 0.0
12/04:30am 13.7 6.3 5.1 56 4.0 NNE 33 41 18 22 1020.8 1020.8 0.0
12/04:00am 13.8 6.4 5.2 56 4.0 NNE 33 46 18 25 1021.2 1021.2 0.0
12/03:30am 13.8 7.3 4.9 55 4.1 NNE 28 41 15 22 1021.4 1021.4 0.0
12/03:00am 13.8 6.3 4.7 54 4.2 NNE 33 43 18 23 1021.5 1021.5 0.0
12/02:30am 13.7 7.3 5.3 57 3.9 NE 28 39 15 21 1021.5 1021.5 0.0
12/02:00am 13.4 7.0 5.1 57 3.8 NE 28 39 15 21 1021.9 1021.9 0.0
12/01:30am 13.6 7.2 5.3 57 3.9 NE 28 35 15 19 1022.2 1022.2 0.0
12/01:00am 13.7 7.8 5.6 58 3.8 NE 26 35 14 19 1022.3 1022.3 0.0
12/12:30am 13.5 7.9 5.4 58 3.8 NE 24 35 13 19 1022.6 1022.6 0.0
12/12:00am 13.4 7.8 5.6 59 3.7 NE 24 32 13 17 1023.0 1023.0 0.0
 
Date/Time
WST
Temp
°C
App
Temp
°C
Dew
Point
°C
Rel
Hum
%
Delta-T
°C
Wind Press
QNH
hPa
Press
MSL
hPa
Rain since
9am
mm
Dir  Spd
km/h
Gust
km/h
Spd
kts
Gust
kts
11/11:30pm 13.4 8.2 5.6 59 3.7 NE 22 30 12 16 1023.7 1023.7 0.0
11/11:00pm 13.5 8.0 5.7 59 3.7 NE 24 33 13 18 1024.0 1024.0 0.0
11/10:30pm 13.3 8.6 5.9 61 3.5 NE 20 28 11 15 1024.3 1024.3 0.0
11/10:00pm 13.4 8.3 5.8 60 3.6 NE 22 33 12 18 1024.2 1024.2 0.0
11/09:30pm 13.6 8.4 5.7 59 3.7 ENE 22 32 12 17 1024.5 1024.5 0.0
11/09:00pm 14.1 8.2 6.0 58 3.8 NE 26 35 14 19 1024.5 1024.5 0.0
11/08:30pm 14.4 8.1 5.7 56 4.1 NE 28 37 15 20 1024.7 1024.7 0.0
11/08:00pm 14.7 8.8 5.8 55 4.2 NE 26 35 14 19 1024.9 1024.9 0.0
11/07:30pm 14.8 8.9 5.9 55 4.3 ENE 26 33 14 18 1025.1 1025.1 0.0
11/07:00pm 14.8 9.7 5.9 55 4.2 ENE 22 32 12 17 1025.2 1025.2 0.0
11/06:30pm 14.9 10.1 5.7 54 4.4 ENE 20 28 11 15 1025.3 1025.3 0.0
11/06:00pm 14.4 11.0 5.7 56 4.1 E 13 19 7 10 1025.4 1025.4 0.0
11/05:30pm 14.8 10.5 5.3 53 4.5 E 17 20 9 11 1025.3 1025.3 0.0
11/05:00pm 15.5 12.1 5.7 52 4.7 E 13 20 7 11 1025.2 1025.2 0.0
11/04:30pm 15.7 11.4 5.3 50 5.0 E 17 24 9 13 1025.3 1025.3 0.0
11/04:00pm 15.9 11.6 5.2 49 5.1 E 17 24 9 13 1025.5 1025.5 0.0
11/03:30pm 15.7 11.5 5.6 51 4.8 E 17 24 9 13 1025.7 1025.7 0.0
11/03:00pm 16.0 12.2 5.6 50 5.0 ENE 15 20 8 11 1026.0 1026.0 0.0
11/02:30pm 15.7 11.9 5.9 52 4.7 ENE 15 22 8 12 1026.2 1026.2 0.0
11/02:00pm 16.0 11.5 6.2 52 4.7 NE 19 28 10 15 1026.5 1026.5 0.0
11/01:30pm 15.1 10.4 5.3 52 4.6 NE 19 28 10 15 1026.9 1026.9 0.0
11/01:00pm 14.8 10.1 5.3 53 4.5 NE 19 26 10 14 1027.3 1027.3 0.0
11/12:30pm 15.1 10.5 6.4 56 4.2 NE 20 28 11 15 1027.8 1027.8 0.0
11/12:00pm 14.6 9.5 5.9 56 4.1 NE 22 28 12 15 1028.3 1028.3 0.0
11/11:30am 14.1 7.8 5.7 57 4.0 NE 28 33 15 18 1028.5 1028.5 0.0
11/11:00am 13.5 6.4 5.4 58 3.8 NNE 32 41 17 22 1028.8 1028.8 0.0
11/10:30am 13.0 5.9 5.4 60 3.6 NE 32 39 17 21 1028.9 1028.9 0.0
11/10:00am 12.2 5.9 5.6 64 3.1 NE 28 39 15 21 1029.2 1029.2 0.0
11/09:30am 11.9 5.6 5.5 65 3.0 NE 28 39 15 21 1029.3 1029.3 0.0

Other formats

Comma delimited format used in spreadsheet applications
http://www.bom.gov.au/fwo/IDW60801/IDW60801.94602.axf

JavaScript Object Notation format (JSON) in row-major order
http://www.bom.gov.au/fwo/IDW60801/IDW60801.94602.json

Data quality

Most of these data are generated automatically and are frequently updated. Quality checks on data are not normally performed. It is possible for incorrect values to appear. Refer to information at About Latest Weather Observations and please check the disclaimer before using these data.